Terminal Aerodrome Forecast
Issued by NWS Louisville, KY

Home | Current Version | Previous Version | Text Only | Print | Product List | Glossary On
Versions: 1 2 3 4 5 6 7 8 9 10 11 12 13 14 15 16 17 18
776
FTUS43 KLMK 261120
TAFBWG
TAF
KBWG 261120Z 2612/2712 15005KT P6SM FEW250
      TEMPO 2612/2613 2SM BR
     FM261400 19012G19KT P6SM FEW050 SCT250
     FM270200 17015KT P6SM FEW035 BKN250 WS016/17049KT
     FM270800 20017G24KT P6SM -SHRA BKN025=

USA.gov is the U.S. government's official web portal to all federal, state and local government web resources and services.